createdAt,value
2019-03-13T00:01:28.314Z,17.30
2019-03-13T00:03:59.497Z,16.02
2019-03-13T00:06:32.004Z,15.78
2019-03-13T00:09:04.479Z,16.95
2019-03-13T00:11:35.980Z,15.70
2019-03-13T00:14:07.401Z,16.17
2019-03-13T00:16:38.604Z,16.07
2019-03-13T00:19:10.889Z,17.55
2019-03-13T00:21:42.085Z,18.17
2019-03-13T00:24:13.096Z,18.82
2019-03-13T00:26:44.372Z,20.23
2019-03-13T00:29:16.894Z,20.88
2019-03-13T00:31:48.053Z,21.52
2019-03-13T00:34:19.202Z,21.40
2019-03-13T00:36:50.369Z,21.10
2019-03-13T00:39:21.615Z,20.70
2019-03-13T00:41:52.742Z,19.17
2019-03-13T00:44:23.799Z,19.65
2019-03-13T00:46:55.118Z,20.05
2019-03-13T00:49:26.106Z,18.95
2019-03-13T00:51:57.299Z,18.15
2019-03-13T00:54:28.503Z,19.10
2019-03-13T00:56:59.678Z,18.70
2019-03-13T00:59:30.958Z,20.32
2019-03-13T01:02:06.630Z,19.50
2019-03-13T01:04:39.648Z,19.98
2019-03-13T01:07:10.915Z,21.07
2019-03-13T01:09:42.129Z,21.50
2019-03-13T01:12:13.406Z,20.77
2019-03-13T01:14:44.697Z,20.82
2019-03-13T01:17:15.933Z,21.23
2019-03-13T01:19:47.030Z,19.32
2019-03-13T01:22:18.212Z,20.30
2019-03-13T01:24:49.291Z,20.45
2019-03-13T01:27:20.388Z,21.57
2019-03-13T01:29:52.448Z,21.57
2019-03-13T01:32:40.389Z,22.17
2019-03-13T01:35:13.289Z,23.35
2019-03-13T01:37:44.414Z,22.67
2019-03-13T01:40:15.677Z,22.82
2019-03-13T01:42:47.053Z,23.30
2019-03-13T01:45:18.125Z,23.18
2019-03-13T01:47:52.724Z,22.98
2019-03-13T01:50:23.840Z,24.10
2019-03-13T01:52:55.156Z,24.95
2019-03-13T01:55:26.246Z,28.02
2019-03-13T01:57:57.567Z,29.12
2019-03-13T02:00:28.807Z,29.50
2019-03-13T02:03:00.136Z,28.70
2019-03-13T02:05:31.248Z,28.27
2019-03-13T02:08:02.475Z,27.98
2019-03-13T02:10:33.639Z,26.02
2019-03-13T02:13:04.759Z,25.00
2019-03-13T02:15:36.260Z,25.23
2019-03-13T02:18:07.439Z,23.70
2019-03-13T02:20:38.591Z,24.90
2019-03-13T02:23:09.792Z,25.08
2019-03-13T02:25:40.853Z,26.65
2019-03-13T02:28:12.235Z,29.02
2019-03-13T02:30:43.443Z,31.82
2019-03-13T02:33:14.604Z,33.67
2019-03-13T02:35:45.790Z,33.92
2019-03-13T02:38:16.922Z,33.25
2019-03-13T02:40:49.139Z,33.78
2019-03-13T02:43:20.338Z,34.58
2019-03-13T02:45:51.484Z,35.00
2019-03-13T02:48:22.723Z,35.80
2019-03-13T02:50:53.762Z,38.38
2019-03-13T02:53:24.912Z,36.33
2019-03-13T02:55:56.067Z,35.20
2019-03-13T02:58:27.348Z,37.50
2019-03-13T03:01:00.096Z,35.85
2019-03-13T03:03:32.850Z,34.92
2019-03-13T03:06:04.090Z,37.10
2019-03-13T03:08:36.602Z,36.35
2019-03-13T03:11:08.915Z,35.20
2019-03-13T03:13:40.116Z,34.25
2019-03-13T03:16:11.405Z,34.67
2019-03-13T03:18:42.475Z,35.92
2019-03-13T03:21:13.585Z,36.10
2019-03-13T03:23:45.413Z,33.05
2019-03-13T03:26:20.607Z,32.98
2019-03-13T03:28:51.872Z,37.10
2019-03-13T03:31:23.193Z,29.07
2019-03-13T03:34:03.964Z,29.77
2019-03-13T03:36:35.276Z,28.35
2019-03-13T03:39:06.885Z,26.45
2019-03-13T03:41:38.370Z,27.87
2019-03-13T03:44:09.575Z,25.60
2019-03-13T03:46:40.675Z,27.75
2019-03-13T03:49:13.408Z,27.80
2019-03-13T03:51:46.189Z,27.87
2019-03-13T03:54:17.213Z,28.23
2019-03-13T03:56:48.237Z,26.90
2019-03-13T03:59:19.313Z,25.68
2019-03-13T04:01:51.884Z,25.43
2019-03-13T04:04:22.963Z,20.68
2019-03-13T04:06:54.130Z,20.62
2019-03-13T04:09:25.166Z,21.73
2019-03-13T04:11:56.497Z,21.45
2019-03-13T04:14:27.684Z,21.52
2019-03-13T04:16:58.942Z,21.10
2019-03-13T04:19:29.992Z,19.57
2019-03-13T04:22:01.105Z,20.02
2019-03-13T04:24:32.150Z,18.75
2019-03-13T04:27:03.360Z,16.50
2019-03-13T04:29:34.501Z,16.55
2019-03-13T04:32:09.008Z,16.10
2019-03-13T04:34:41.689Z,16.12
2019-03-13T04:37:12.755Z,17.23
2019-03-13T04:39:43.799Z,16.42
2019-03-13T04:42:14.947Z,15.60
2019-03-13T04:44:46.178Z,15.72
2019-03-13T04:47:17.195Z,16.42
2019-03-13T04:49:48.331Z,16.05
2019-03-13T04:52:19.418Z,16.12
2019-03-13T04:54:50.598Z,16.75
2019-03-13T04:57:22.121Z,17.17
2019-03-13T04:59:53.226Z,16.97
2019-03-13T05:02:25.962Z,16.07
2019-03-13T05:04:58.738Z,15.60
2019-03-13T05:07:30.171Z,17.65
2019-03-13T05:10:01.638Z,15.38
2019-03-13T05:12:32.808Z,16.60
2019-03-13T05:15:05.664Z,17.05
2019-03-13T05:17:36.992Z,16.87
2019-03-13T05:20:08.189Z,16.62
2019-03-13T05:22:39.614Z,15.75
2019-03-13T05:25:11.163Z,14.87
2019-03-13T05:27:42.270Z,14.83
2019-03-13T05:30:13.542Z,14.95
2019-03-13T05:32:44.639Z,14.60
2019-03-13T05:35:15.826Z,14.38
2019-03-13T05:37:46.865Z,13.65
2019-03-13T05:40:18.112Z,13.90
2019-03-13T05:42:49.313Z,12.50
2019-03-13T05:45:20.943Z,13.43
2019-03-13T05:47:52.181Z,13.08
2019-03-13T05:50:23.247Z,11.95
2019-03-13T05:52:54.465Z,11.75
2019-03-13T05:55:25.612Z,12.50
2019-03-13T05:57:56.724Z,12.82
2019-03-13T06:00:29.185Z,12.63
2019-03-13T06:03:01.523Z,13.65
2019-03-13T06:05:32.690Z,13.08
2019-03-13T06:08:03.925Z,11.40
2019-03-13T06:10:37.296Z,12.85
2019-03-13T06:13:11.151Z,10.65
2019-03-13T06:15:42.270Z,11.25
2019-03-13T06:18:13.681Z,12.07
2019-03-13T06:20:45.082Z,12.33
2019-03-13T06:23:16.217Z,12.05
2019-03-13T06:25:47.428Z,11.95
2019-03-13T06:28:18.879Z,12.03
2019-03-13T06:30:50.032Z,12.33
2019-03-13T06:33:21.033Z,12.33
2019-03-13T06:35:52.137Z,12.58
2019-03-13T06:38:23.577Z,11.85
2019-03-13T06:40:54.759Z,12.30
2019-03-13T06:43:25.910Z,12.65
2019-03-13T06:45:57.078Z,12.28
2019-03-13T06:48:28.130Z,12.53
2019-03-13T06:50:59.426Z,11.25
2019-03-13T06:53:30.639Z,13.13
2019-03-13T06:56:01.926Z,13.13
2019-03-13T06:58:34.582Z,13.58
2019-03-13T07:01:19.291Z,13.83
2019-03-13T07:03:54.783Z,9.83
2019-03-13T07:06:27.588Z,13.15
2019-03-13T07:09:00.431Z,13.93
2019-03-13T07:11:43.911Z,13.85
2019-03-13T07:14:34.575Z,14.05
2019-03-13T07:17:16.476Z,13.58
2019-03-13T07:19:57.977Z,13.65
2019-03-13T07:22:30.760Z,14.58
2019-03-13T07:25:03.685Z,13.70
2019-03-13T07:27:39.503Z,14.47
2019-03-13T07:30:29.069Z,13.78
2019-03-13T07:33:01.824Z,13.53
2019-03-13T07:35:37.682Z,13.22
2019-03-13T07:38:10.618Z,13.72
2019-03-13T07:40:58.631Z,11.50
2019-03-13T07:43:40.391Z,11.63
2019-03-13T07:46:22.270Z,12.63
2019-03-13T07:48:55.241Z,11.38
2019-03-13T07:51:43.630Z,13.30
2019-03-13T07:54:16.469Z,11.12
2019-03-13T07:57:05.024Z,12.65
2019-03-13T07:59:43.841Z,10.15
2019-03-13T08:02:33.186Z,9.70
2019-03-13T08:05:13.870Z,11.30
2019-03-13T08:08:02.698Z,11.68
2019-03-13T08:10:35.813Z,11.25
2019-03-13T08:13:11.172Z,11.05
2019-03-13T08:16:00.573Z,10.63
2019-03-13T08:18:39.640Z,7.62
2019-03-13T08:21:23.906Z,7.42
2019-03-13T08:23:56.844Z,7.83
2019-03-13T08:26:29.458Z,7.22
2019-03-13T08:29:08.681Z,6.67
2019-03-13T08:31:53.305Z,7.58
2019-03-13T08:34:26.059Z,5.05
2019-03-13T08:37:01.601Z,7.58
2019-03-13T08:39:43.496Z,6.90
2019-03-13T08:42:19.027Z,6.92
2019-03-13T08:44:51.665Z,7.25
2019-03-13T08:47:30.336Z,6.53
2019-03-13T08:50:05.919Z,7.25
2019-03-13T08:52:38.653Z,6.92
2019-03-13T08:55:24.341Z,5.95
2019-03-13T08:57:59.886Z,5.67
2019-03-13T09:00:32.447Z,6.20
2019-03-13T09:03:17.437Z,5.05
2019-03-13T09:05:59.272Z,5.60
2019-03-13T09:08:35.608Z,5.80
2019-03-13T09:11:23.866Z,6.17
2019-03-13T09:14:05.503Z,5.90
2019-03-13T09:16:53.265Z,5.67
2019-03-13T09:19:35.054Z,5.87
2019-03-13T09:22:22.801Z,6.55
2019-03-13T09:25:10.833Z,6.40
2019-03-13T09:27:35.513Z,5.58
2019-03-13T09:30:13.536Z,5.37
2019-03-13T09:32:52.076Z,5.12
2019-03-13T09:35:40.664Z,5.15
2019-03-13T09:38:16.249Z,5.05
2019-03-13T09:41:01.200Z,4.72
2019-03-13T09:43:42.576Z,5.30
2019-03-13T09:46:30.685Z,5.22
2019-03-13T09:49:03.345Z,4.70
2019-03-13T09:51:51.486Z,5.25
2019-03-13T09:54:30.032Z,4.80
2019-03-13T09:57:14.366Z,4.87
2019-03-13T09:59:59.166Z,4.83
2019-03-13T10:02:48.146Z,4.33
2019-03-13T10:05:23.573Z,4.70
2019-03-13T10:08:12.289Z,4.45
2019-03-13T10:10:44.848Z,5.03
2019-03-13T10:13:17.629Z,4.92
2019-03-13T10:15:50.381Z,5.60
2019-03-13T10:18:29.826Z,5.17
2019-03-13T10:21:06.929Z,6.20
2019-03-13T10:23:48.773Z,5.70
2019-03-13T10:26:24.091Z,5.58
2019-03-13T10:28:56.736Z,6.22
2019-03-13T10:31:34.818Z,5.58
2019-03-13T10:34:16.660Z,5.70
2019-03-13T10:36:50.570Z,5.40
2019-03-13T10:39:41.910Z,4.77
2019-03-13T10:42:20.630Z,6.30
2019-03-13T10:44:56.288Z,5.12
2019-03-13T10:47:41.443Z,4.47
2019-03-13T10:50:15.255Z,4.97
2019-03-13T10:52:50.952Z,4.50
2019-03-13T10:55:23.668Z,4.83
2019-03-13T10:58:08.458Z,5.05
2019-03-13T11:00:57.288Z,5.20
2019-03-13T11:03:29.929Z,4.75
2019-03-13T11:06:17.660Z,5.08
2019-03-13T11:08:56.456Z,5.47
2019-03-13T11:11:32.075Z,4.70
2019-03-13T11:14:14.833Z,4.47
2019-03-13T11:16:45.346Z,4.30
2019-03-13T11:19:30.007Z,4.72
2019-03-13T11:22:08.484Z,4.85
2019-03-13T11:24:41.129Z,5.67
2019-03-13T11:27:13.746Z,4.50
2019-03-13T11:29:46.317Z,4.80
2019-03-13T11:32:19.020Z,5.40
2019-03-13T11:34:54.365Z,4.40
2019-03-13T11:37:43.171Z,4.22
2019-03-13T11:40:24.985Z,4.03
2019-03-13T11:43:10.291Z,4.60
2019-03-13T11:46:01.271Z,4.90
2019-03-13T11:48:34.111Z,4.97
2019-03-13T11:51:06.647Z,5.10
2019-03-13T11:53:39.306Z,4.50
2019-03-13T11:56:12.010Z,4.45
2019-03-13T11:58:59.760Z,4.58
2019-03-13T12:01:44.942Z,5.10
2019-03-13T12:04:25.063Z,4.58
2019-03-13T12:07:03.712Z,4.97
2019-03-13T12:09:53.800Z,4.92
2019-03-13T12:12:26.487Z,5.08
2019-03-13T12:15:18.357Z,5.22
2019-03-13T12:17:50.967Z,4.62
2019-03-13T12:20:23.777Z,4.70
2019-03-13T12:22:58.819Z,4.28
2019-03-13T12:25:35.662Z,4.30
2019-03-13T12:28:08.275Z,4.10
2019-03-13T12:30:43.870Z,4.15
2019-03-13T12:33:16.783Z,4.95
2019-03-13T12:35:58.445Z,5.05
2019-03-13T12:38:47.281Z,4.95
2019-03-13T12:41:40.497Z,5.80
2019-03-13T12:44:16.174Z,4.37
2019-03-13T12:47:08.679Z,4.65
2019-03-13T12:49:57.497Z,5.35
2019-03-13T12:52:46.162Z,4.97
2019-03-13T12:55:23.552Z,4.83
2019-03-13T12:58:14.700Z,4.80
2019-03-13T13:00:47.352Z,4.62
2019-03-13T13:03:20.076Z,4.97
2019-03-13T13:05:55.524Z,5.15
2019-03-13T13:08:34.204Z,4.80
2019-03-13T13:11:09.720Z,4.20
2019-03-13T13:13:47.991Z,3.92
2019-03-13T13:16:26.064Z,3.92
2019-03-13T13:18:57.162Z,4.05
2019-03-13T13:21:28.223Z,4.67
2019-03-13T13:23:59.509Z,4.87
2019-03-13T13:26:30.595Z,4.60
2019-03-13T13:29:08.903Z,4.30
2019-03-13T13:31:40.020Z,4.55
2019-03-13T13:34:10.965Z,4.90
2019-03-13T13:36:42.145Z,5.92
2019-03-13T13:39:13.144Z,5.70
2019-03-13T13:41:44.030Z,4.95
2019-03-13T13:44:14.942Z,4.67
2019-03-13T13:46:46.034Z,4.92
2019-03-13T13:49:17.123Z,5.25
2019-03-13T13:51:48.123Z,5.58
2019-03-13T13:54:19.306Z,5.28
2019-03-13T13:56:50.233Z,5.25
2019-03-13T13:59:21.281Z,5.47
2019-03-13T14:01:52.169Z,5.97
2019-03-13T14:04:23.426Z,6.65
2019-03-13T14:06:54.424Z,7.30
2019-03-13T14:09:25.630Z,5.55
2019-03-13T14:11:56.533Z,4.85
2019-03-13T14:14:27.587Z,4.97
2019-03-13T14:16:58.520Z,4.50
2019-03-13T14:19:29.501Z,4.45
2019-03-13T14:22:00.573Z,4.70
2019-03-13T14:24:31.689Z,4.97
2019-03-13T14:27:13.961Z,5.30
2019-03-13T14:29:35.730Z,5.47
2019-03-13T14:32:07.666Z,5.00
2019-03-13T14:34:38.842Z,4.53
2019-03-13T14:37:09.819Z,4.30
2019-03-13T14:39:40.861Z,4.90
2019-03-13T14:42:11.804Z,4.58
2019-03-13T14:44:42.939Z,4.40
2019-03-13T14:47:13.831Z,4.35
2019-03-13T14:49:44.965Z,4.28
2019-03-13T14:52:15.981Z,4.22
2019-03-13T14:54:47.058Z,4.22
2019-03-13T14:57:18.038Z,4.47
2019-03-13T14:59:49.226Z,4.55
2019-03-13T15:02:20.177Z,5.15
2019-03-13T15:04:51.260Z,5.37
2019-03-13T15:07:22.269Z,5.37
2019-03-13T15:09:53.636Z,5.62
2019-03-13T15:12:25.611Z,5.42
2019-03-13T15:14:56.746Z,6.33
2019-03-13T15:17:27.682Z,6.40
2019-03-13T15:19:58.635Z,6.03
2019-03-13T15:22:29.792Z,6.33
2019-03-13T15:25:00.828Z,6.22
2019-03-13T15:27:31.876Z,6.37
2019-03-13T15:30:02.963Z,6.47
2019-03-13T15:32:35.464Z,7.37
2019-03-13T15:35:09.127Z,8.48
2019-03-13T15:37:40.084Z,9.35
2019-03-13T15:40:14.445Z,10.30
2019-03-13T15:42:45.751Z,10.20
2019-03-13T15:45:28.259Z,10.60
2019-03-13T15:47:59.367Z,10.78
2019-03-13T15:50:32.354Z,11.48
2019-03-13T15:53:03.451Z,11.75
2019-03-13T15:55:34.702Z,11.70
2019-03-13T15:58:05.738Z,11.53
2019-03-13T16:00:36.901Z,10.82
2019-03-13T16:03:08.096Z,10.65
2019-03-13T16:05:40.815Z,11.05
2019-03-13T16:08:11.948Z,13.35
2019-03-13T16:10:43.195Z,13.85
2019-03-13T16:13:14.475Z,15.98
2019-03-13T16:15:46.306Z,13.72
2019-03-13T16:18:17.554Z,15.55
2019-03-13T16:20:48.783Z,22.30
2019-03-13T16:23:20.081Z,37.03
2019-03-13T16:25:51.288Z,22.85
2019-03-13T16:28:22.484Z,30.65
2019-03-13T16:30:55.757Z,26.80
2019-03-13T16:33:27.263Z,34.00
2019-03-13T16:35:58.383Z,36.77
2019-03-13T16:38:30.004Z,35.60
2019-03-13T16:41:04.701Z,37.10
2019-03-13T16:43:35.853Z,41.85
2019-03-13T16:46:08.109Z,34.55
2019-03-13T16:48:47.210Z,38.80
2019-03-13T16:51:22.064Z,39.35
2019-03-13T16:53:53.506Z,52.65
2019-03-13T16:56:26.350Z,50.12
2019-03-13T16:58:57.411Z,54.25
2019-03-13T17:01:30.252Z,49.88
2019-03-13T17:04:01.325Z,39.10
2019-03-13T17:06:32.622Z,27.95
2019-03-13T17:09:04.403Z,26.37
2019-03-13T17:11:37.363Z,24.87
2019-03-13T17:14:08.644Z,25.90
2019-03-13T17:16:39.781Z,23.90
2019-03-13T17:19:10.922Z,24.25
2019-03-13T17:21:42.273Z,23.75
2019-03-13T17:24:13.380Z,22.50
2019-03-13T17:26:44.554Z,24.67
2019-03-13T17:29:17.152Z,32.58
2019-03-13T17:31:48.279Z,33.70
2019-03-13T17:34:19.459Z,51.00
2019-03-13T17:36:51.183Z,45.60
2019-03-13T17:39:22.376Z,40.83
2019-03-13T17:41:53.572Z,33.48
2019-03-13T17:44:24.540Z,27.40
2019-03-13T17:46:55.877Z,32.15
2019-03-13T17:49:26.969Z,34.43
2019-03-13T17:51:58.259Z,32.75
2019-03-13T17:54:31.979Z,28.15
2019-03-13T17:57:03.276Z,21.77
2019-03-13T17:59:34.392Z,26.37
2019-03-13T18:02:05.669Z,30.65
2019-03-13T18:04:36.724Z,30.43
2019-03-13T18:07:07.960Z,28.98
2019-03-13T18:09:39.213Z,31.85
2019-03-13T18:12:11.384Z,30.48
2019-03-13T18:14:42.700Z,30.82
2019-03-13T18:17:13.817Z,22.77
2019-03-13T18:19:44.982Z,25.35
2019-03-13T18:22:18.799Z,26.90
2019-03-13T18:24:49.925Z,26.87
2019-03-13T18:27:21.097Z,28.92
2019-03-13T18:29:52.219Z,32.20
2019-03-13T18:32:23.407Z,32.05
2019-03-13T18:34:54.748Z,35.25
2019-03-13T18:37:26.356Z,40.70
2019-03-13T18:39:57.527Z,45.10
2019-03-13T18:42:28.876Z,47.17
2019-03-13T18:45:00.421Z,49.77
2019-03-13T18:47:35.028Z,53.58
2019-03-13T18:50:12.912Z,49.95
2019-03-13T18:52:44.500Z,49.88
2019-03-13T18:55:18.529Z,51.13
2019-03-13T18:57:50.887Z,46.30
2019-03-13T19:00:30.530Z,46.25
2019-03-13T19:03:01.970Z,43.35
2019-03-13T19:05:37.955Z,44.30
2019-03-13T19:08:11.121Z,44.58
2019-03-13T19:10:42.365Z,43.52
2019-03-13T19:13:13.687Z,45.67
2019-03-13T19:15:46.417Z,46.77
2019-03-13T19:18:17.718Z,47.03
2019-03-13T19:20:58.882Z,49.65
2019-03-13T19:23:30.236Z,48.02
2019-03-13T19:26:01.454Z,49.75
2019-03-13T19:28:32.829Z,50.23
2019-03-13T19:31:04.075Z,47.40
2019-03-13T19:33:35.167Z,47.13
2019-03-13T19:36:06.409Z,48.58
2019-03-13T19:38:37.562Z,48.55
2019-03-13T19:41:09.262Z,45.63
2019-03-13T19:43:40.579Z,42.10
2019-03-13T19:46:11.674Z,46.95
2019-03-13T19:48:42.925Z,46.05
2019-03-13T19:51:14.017Z,43.10
2019-03-13T19:53:45.246Z,43.58
2019-03-13T19:56:16.304Z,45.45
2019-03-13T19:58:47.657Z,48.00
2019-03-13T20:01:18.938Z,49.25
2019-03-13T20:03:55.235Z,50.55
2019-03-13T20:06:23.098Z,47.65
2019-03-13T20:08:54.351Z,47.08
2019-03-13T20:11:25.525Z,50.28
2019-03-13T20:13:56.857Z,46.70
2019-03-13T20:16:30.623Z,46.18
2019-03-13T20:19:01.906Z,45.43
2019-03-13T20:21:33.172Z,44.58
2019-03-13T20:24:04.405Z,41.95
2019-03-13T20:26:35.491Z,42.40
2019-03-13T20:29:06.666Z,42.33
2019-03-13T20:31:38.041Z,45.15
2019-03-13T20:34:09.156Z,41.23
2019-03-13T20:36:40.260Z,41.58
2019-03-13T20:39:11.443Z,42.58
2019-03-13T20:41:42.717Z,41.48
2019-03-13T20:44:13.931Z,41.42
2019-03-13T20:46:45.129Z,43.87
2019-03-13T20:49:16.224Z,44.00
2019-03-13T20:51:47.370Z,48.02
2019-03-13T20:54:18.498Z,50.33
2019-03-13T20:56:49.718Z,46.90
2019-03-13T20:59:21.033Z,49.60
2019-03-13T21:01:52.107Z,48.68
2019-03-13T21:04:23.278Z,49.85
2019-03-13T21:06:55.423Z,49.40
2019-03-13T21:09:26.585Z,48.38
2019-03-13T21:11:57.871Z,50.30
2019-03-13T21:14:29.076Z,51.83
2019-03-13T21:17:00.187Z,50.95
2019-03-13T21:19:31.381Z,51.15
2019-03-13T21:22:04.605Z,53.13
2019-03-13T21:24:35.577Z,54.67
2019-03-13T21:27:07.747Z,54.15
2019-03-13T21:29:38.903Z,50.15
2019-03-13T21:32:10.094Z,51.68
2019-03-13T21:34:41.431Z,50.73
2019-03-13T21:37:12.502Z,49.30
2019-03-13T21:39:43.714Z,49.70
2019-03-13T21:42:14.947Z,47.98
2019-03-13T21:44:46.139Z,44.73
2019-03-13T21:47:17.213Z,44.20
2019-03-13T21:49:48.338Z,45.78
2019-03-13T21:52:19.492Z,49.42
2019-03-13T21:54:52.251Z,50.75
2019-03-13T21:57:27.005Z,51.08
2019-03-13T21:59:58.216Z,51.10
2019-03-13T22:02:33.086Z,50.05
2019-03-13T22:05:02.341Z,50.25
2019-03-13T22:07:33.651Z,43.48
2019-03-13T22:10:07.233Z,46.75
2019-03-13T22:12:38.678Z,50.92
2019-03-13T22:15:15.308Z,48.30
2019-03-13T22:17:46.458Z,50.83
2019-03-13T22:20:18.265Z,43.40
2019-03-13T22:22:49.512Z,46.35
2019-03-13T22:25:20.810Z,45.65
2019-03-13T22:27:52.051Z,48.30
2019-03-13T22:30:28.634Z,43.92
2019-03-13T22:32:58.293Z,45.38
2019-03-13T22:35:30.400Z,45.73
2019-03-13T22:38:01.431Z,47.55
2019-03-13T22:40:32.618Z,44.65
2019-03-13T22:43:03.727Z,45.65
2019-03-13T22:45:34.879Z,46.00
2019-03-13T22:48:05.898Z,46.33
2019-03-13T22:50:37.187Z,53.78
2019-03-13T22:53:08.324Z,49.18
2019-03-13T22:55:41.045Z,51.20
2019-03-13T22:58:12.336Z,51.48
2019-03-13T23:00:54.281Z,49.33
2019-03-13T23:03:28.218Z,49.70
2019-03-13T23:05:59.630Z,48.23
2019-03-13T23:08:31.298Z,46.77
2019-03-13T23:11:02.413Z,48.33
2019-03-13T23:13:35.162Z,46.55
2019-03-13T23:16:06.195Z,44.55
2019-03-13T23:18:37.292Z,51.30
2019-03-13T23:21:08.417Z,46.60
2019-03-13T23:23:39.526Z,44.10
2019-03-13T23:26:10.694Z,42.55
2019-03-13T23:28:41.973Z,41.25
2019-03-13T23:31:13.106Z,44.03
2019-03-13T23:33:44.180Z,49.55
2019-03-13T23:36:15.545Z,47.25
2019-03-13T23:38:46.850Z,38.90
2019-03-13T23:41:18.059Z,39.45
2019-03-13T23:43:49.304Z,42.55
2019-03-13T23:46:20.510Z,43.87
2019-03-13T23:48:51.653Z,39.33
2019-03-13T23:51:22.738Z,41.20
2019-03-13T23:53:53.821Z,38.80
2019-03-13T23:56:25.021Z,38.48
2019-03-13T23:58:56.014Z,39.67
